Pagina principale
METAR-TAF:

METAR-TAF

Aeroporti :

Fasa, Iran

latitudine: 28-58N, longitudine: 053-41E, altezza: 1383 m

Osservazione

Il bollettino è stato emesso 1 ora e 12 minuti fa, alle 16:00 UTC
Vento calmo
Temperature 34°C
Umidità 20%
Pressione 1009 hPa
Visibilità 10 km o più
Poco nuvoloso ad un'altezza di 4000 ft

METAR: OISF 051600Z 00000KT 9999 FEW040 34/08 Q1009 A2981

Ora: 21:42 (17:12 UTC)


TAF: mancante

Osservazioni e previsioni meteorologiche di più di 4000 aeroporti (messaggi METAR e TAF).

Le stazioni disponibili sono rappresentate dai dischi gialli e rossi sulla carta.

Puntare il mouse per vedere il nome della stazione.

Clicca sopra per visualizzare le osservazioni e previsioni meteorologiche.

Per cambiare la mappa : fare clic sui pulsanti verdi con una croce nera per ingrandire, il pulsante verde con un trattino per diminuire, o sulla freccia verde per le mappe adiacenti.


METAR-TAF: